createdAt,value
2023-02-25T00:04:48.532Z,960.72
2023-02-25T00:16:49.145Z,960.23
2023-02-25T00:28:49.470Z,960.03
2023-02-25T00:40:49.915Z,959.71
2023-02-25T00:52:50.385Z,959.74
2023-02-25T01:04:50.829Z,959.58
2023-02-25T01:16:51.229Z,959.28
2023-02-25T01:28:51.763Z,959.17
2023-02-25T01:40:52.188Z,959.10
2023-02-25T01:52:52.638Z,959.54
2023-02-25T02:04:53.108Z,959.83
2023-02-25T02:16:53.533Z,959.93
2023-02-25T02:28:53.980Z,959.93
2023-02-25T02:40:54.893Z,959.99
2023-02-25T02:52:54.910Z,960.04
2023-02-25T03:04:55.364Z,960.25
2023-02-25T03:16:55.818Z,959.98
2023-02-25T03:28:56.253Z,960.19
2023-02-25T03:40:56.746Z,960.23
2023-02-25T03:52:57.194Z,960.34
2023-02-25T04:04:57.675Z,960.44
2023-02-25T04:16:58.108Z,960.51
2023-02-25T04:28:58.499Z,960.75
2023-02-25T04:40:58.960Z,960.95
2023-02-25T04:52:59.418Z,960.99
2023-02-25T05:04:59.860Z,961.22
2023-02-25T05:17:00.298Z,961.24
2023-02-25T05:29:00.779Z,961.18
2023-02-25T05:41:01.212Z,961.30
2023-02-25T05:53:01.662Z,961.57
2023-02-25T06:05:02.115Z,961.73
2023-02-25T06:17:02.586Z,961.51
2023-02-25T06:29:03.011Z,961.69
2023-02-25T06:41:03.468Z,961.85
2023-02-25T06:53:03.902Z,962.13
2023-02-25T07:05:04.409Z,962.33
2023-02-25T07:17:04.814Z,962.47
2023-02-25T07:29:05.259Z,962.46
2023-02-25T07:41:05.753Z,962.59
2023-02-25T07:53:06.220Z,962.72
2023-02-25T08:05:06.619Z,962.28
2023-02-25T08:17:07.129Z,962.74
2023-02-25T08:29:07.521Z,962.58
2023-02-25T08:41:07.999Z,962.43
2023-02-25T08:53:08.436Z,962.50
2023-02-25T09:05:08.910Z,962.33
2023-02-25T09:17:09.331Z,962.40
2023-02-25T09:29:09.884Z,962.23
2023-02-25T09:41:10.251Z,962.41
2023-02-25T09:53:10.706Z,962.18
2023-02-25T10:05:11.185Z,962.41
2023-02-25T10:17:11.648Z,962.12
2023-02-25T10:29:12.082Z,962.19
2023-02-25T10:41:12.544Z,962.08
2023-02-25T10:53:12.971Z,962.07
2023-02-25T11:05:13.473Z,962.34
2023-02-25T11:17:13.918Z,962.44
2023-02-25T11:29:14.342Z,962.40
2023-02-25T11:41:14.808Z,962.62
2023-02-25T11:53:15.302Z,962.42
2023-02-25T12:05:15.703Z,962.54
2023-02-25T12:17:16.173Z,962.49
2023-02-25T12:29:16.628Z,962.50
2023-02-25T12:41:17.069Z,962.71
2023-02-25T12:53:17.552Z,962.29
2023-02-25T13:05:17.946Z,962.35
2023-02-25T13:17:18.416Z,962.63
2023-02-25T13:29:18.904Z,962.57
2023-02-25T13:41:19.322Z,962.45
2023-02-25T13:53:19.804Z,962.60
2023-02-25T14:05:22.608Z,962.93
2023-02-25T14:17:20.712Z,962.95
2023-02-25T14:29:21.150Z,963.34
2023-02-25T14:41:21.874Z,963.60
2023-02-25T14:53:22.057Z,963.50
2023-02-25T15:05:22.534Z,963.53
2023-02-25T15:17:22.965Z,963.63
2023-02-25T15:29:23.397Z,963.57
2023-02-25T15:41:24.137Z,963.64
2023-02-25T15:53:24.344Z,963.57
2023-02-25T16:05:24.764Z,963.66
2023-02-25T16:17:25.228Z,963.73
2023-02-25T16:29:25.690Z,963.78
2023-02-25T16:41:33.355Z,963.69
2023-02-25T16:53:26.602Z,964.04
2023-02-25T17:05:26.992Z,964.34
2023-02-25T17:17:27.510Z,964.25
2023-02-25T17:29:27.955Z,964.49
2023-02-25T17:41:28.395Z,964.58
2023-02-25T17:53:28.849Z,964.77
2023-02-25T18:05:29.320Z,964.79
2023-02-25T18:17:29.785Z,964.62
2023-02-25T18:29:30.205Z,964.87
2023-02-25T18:41:30.658Z,964.73
2023-02-25T18:53:31.127Z,964.83
2023-02-25T19:05:31.593Z,965.31
2023-02-25T19:17:32.057Z,965.05
2023-02-25T19:29:32.490Z,965.44
2023-02-25T19:41:32.886Z,965.77
2023-02-25T19:53:33.389Z,965.93
2023-02-25T20:05:33.830Z,965.99
2023-02-25T20:17:34.279Z,966.32
2023-02-25T20:29:34.734Z,966.85
2023-02-25T20:41:35.158Z,966.70
2023-02-25T20:53:35.619Z,966.87
2023-02-25T21:05:36.078Z,967.51
2023-02-25T21:17:36.530Z,967.59
2023-02-25T21:29:37.012Z,967.20
2023-02-25T21:41:37.454Z,967.37
2023-02-25T21:53:37.944Z,967.41
2023-02-25T22:05:38.329Z,967.41
2023-02-25T22:17:38.831Z,967.38
2023-02-25T22:29:39.251Z,967.50
2023-02-25T22:41:39.721Z,967.49
2023-02-25T22:53:40.182Z,967.09
2023-02-25T23:05:40.637Z,967.17
2023-02-25T23:17:41.089Z,967.55
2023-02-25T23:29:41.611Z,967.74
2023-02-25T23:41:41.977Z,967.60
2023-02-25T23:53:42.427Z,967.49
